Time;durP1;ratioP1;P1;durP2;ratioP2;P2;SDS_P1;SDS_P2;PMS_P1;PMS_P2;Temp;Humidity;BMP_temperature;BMP_pressure;BME280_temperature;BME280_humidity;BME280_pressure;Samples;Min_cycle;Max_cycle;Signal;HPM_P1;HPM_P2
2022/06/30 00:00:46;;;;;;;15.33;12.23;;;;;;;;;;5030073;28;20472;-56
2022/06/30 00:03:12;;;;;;;20.13;13.07;;;;;;;;;;4995863;28;1079799;-56
2022/06/30 00:05:38;;;;;;;13.60;12.20;;;;;;;;;;5035257;28;20183;-56
2022/06/30 00:08:04;;;;;;;14.03;12.53;;;;;;;;;;5035181;28;20503;-56
2022/06/30 00:10:30;;;;;;;14.13;12.67;;;;;;;;;;5035096;28;20412;-56
2022/06/30 00:12:56;;;;;;;14.10;12.60;;;;;;;;;;5035178;28;20449;-56
2022/06/30 00:15:22;;;;;;;13.33;11.80;;;;;;;;;;5035082;28;20577;-55
2022/06/30 00:17:48;;;;;;;15.70;12.97;;;;;;;;;;5035109;28;20441;-55
2022/06/30 00:20:14;;;;;;;18.47;14.00;;;;;;;;;;5035185;28;20399;-56
2022/06/30 00:22:40;;;;;;;19.17;14.40;;;;;;;;;;5034986;28;20480;-56
2022/06/30 00:25:06;;;;;;;16.80;13.77;;;;;;;;;;5035756;28;20405;-56
2022/06/30 00:27:32;;;;;;;16.33;13.73;;;;;;;;;;5034796;28;20483;-56
2022/06/30 00:29:58;;;;;;;21.57;14.50;;;;;;;;;;5034862;28;21092;-56
2022/06/30 00:32:24;;;;;;;17.10;13.60;;;;;;;;;;5034882;28;20468;-55
2022/06/30 00:34:50;;;;;;;24.17;15.73;;;;;;;;;;5034686;28;20457;-56
2022/06/30 00:37:16;;;;;;;18.67;12.90;;;;;;;;;;5034627;28;20548;-56
2022/06/30 00:39:42;;;;;;;15.40;12.53;;;;;;;;;;5034736;28;20421;-56
2022/06/30 00:42:08;;;;;;;13.27;11.87;;;;;;;;;;5034399;28;20448;-56
2022/06/30 00:44:34;;;;;;;14.10;12.20;;;;;;;;;;5034687;28;20426;-56
2022/06/30 00:47:00;;;;;;;17.03;12.50;;;;;;;;;;5034490;28;20476;-57
2022/06/30 00:49:27;;;;;;;14.80;12.80;;;;;;;;;;5034637;28;20414;-55
2022/06/30 00:51:53;;;;;;;14.00;12.50;;;;;;;;;;5034099;28;20445;-56
2022/06/30 00:54:22;;;;;;;14.30;12.80;;;;;;;;;;5034778;28;20807;-56
2022/06/30 00:56:48;;;;;;;15.17;12.60;;;;;;;;;;5034185;28;20512;-56
2022/06/30 00:59:16;;;;;;;15.47;13.10;;;;;;;;;;5034611;28;20385;-56
2022/06/30 01:01:43;;;;;;;15.30;12.60;;;;;;;;;;5033636;28;20428;-56
2022/06/30 01:04:09;;;;;;;15.17;13.57;;;;;;;;;;5033911;28;20484;-56
2022/06/30 01:06:35;;;;;;;16.13;13.57;;;;;;;;;;5034521;28;20425;-56
2022/06/30 01:09:01;;;;;;;18.77;13.17;;;;;;;;;;5033929;28;20500;-56
2022/06/30 01:14:12;;;;;;;16.13;14.53;;;;;;;;;;5033678;28;20449;-55
2022/06/30 01:16:42;;;;;;;18.03;13.83;;;;;;;;;;5033944;28;20836;-55
2022/06/30 01:19:08;;;;;;;14.10;12.60;;;;;;;;;;5033528;28;20971;-56
2022/06/30 01:21:34;;;;;;;13.93;12.60;;;;;;;;;;5033816;28;20438;-55
2022/06/30 01:24:00;;;;;;;16.30;14.60;;;;;;;;;;5033824;28;20992;-55
2022/06/30 01:26:29;;;;;;;15.30;13.70;;;;;;;;;;5033826;28;20847;-56
2022/06/30 01:28:56;;;;;;;14.90;13.30;;;;;;;;;;5033913;28;20385;-55
2022/06/30 01:31:22;;;;;;;16.67;13.40;;;;;;;;;;5033567;28;20425;-56
2022/06/30 01:33:48;;;;;;;16.77;14.30;;;;;;;;;;5033866;28;20417;-56
2022/06/30 01:36:14;;;;;;;14.10;12.70;;;;;;;;;;5033465;28;20493;-56
2022/06/30 01:38:41;;;;;;;15.20;13.30;;;;;;;;;;5033448;28;20421;-56
2022/06/30 01:41:07;;;;;;;15.97;14.00;;;;;;;;;;5032936;28;20384;-56
2022/06/30 01:43:33;;;;;;;18.13;14.30;;;;;;;;;;5033502;28;20786;-56
2022/06/30 01:45:59;;;;;;;15.57;13.40;;;;;;;;;;5033501;28;20810;-56
2022/06/30 01:48:25;;;;;;;14.90;13.40;;;;;;;;;;5033577;28;20414;-57
2022/06/30 01:50:51;;;;;;;15.80;14.10;;;;;;;;;;5033000;28;20433;-56
2022/06/30 01:53:17;;;;;;;14.77;13.30;;;;;;;;;;5033187;28;20482;-56
2022/06/30 01:55:43;;;;;;;14.03;12.73;;;;;;;;;;5032790;28;20810;-55
2022/06/30 01:58:09;;;;;;;15.40;13.80;;;;;;;;;;5039628;28;20384;-55
2022/06/30 02:00:35;;;;;;;15.40;13.20;;;;;;;;;;5053202;28;20378;-55
2022/06/30 02:03:01;;;;;;;16.30;13.90;;;;;;;;;;5049233;28;20589;-56
2022/06/30 02:05:27;;;;;;;18.50;13.30;;;;;;;;;;5033171;28;20871;-55
2022/06/30 02:07:54;;;;;;;17.13;13.87;;;;;;;;;;5033010;28;20420;-55
2022/06/30 02:10:22;;;;;;;16.83;15.03;;;;;;;;;;5032578;28;20396;-56
2022/06/30 02:12:48;;;;;;;30.90;14.97;;;;;;;;;;5033174;28;20447;-55
2022/06/30 02:15:28;;;;;;;19.17;14.57;;;;;;;;;;5032500;28;20427;-56
2022/06/30 02:17:55;;;;;;;15.90;14.20;;;;;;;;;;5026220;28;20863;-55
2022/06/30 02:20:23;;;;;;;17.63;15.53;;;;;;;;;;5032272;28;20416;-56
2022/06/30 02:22:50;;;;;;;18.97;15.70;;;;;;;;;;5032699;28;20414;-55
2022/06/30 02:25:16;;;;;;;19.43;15.50;;;;;;;;;;5032050;28;20379;-56
2022/06/30 02:27:42;;;;;;;16.80;14.70;;;;;;;;;;5032937;28;20384;-56
2022/06/30 02:30:08;;;;;;;16.47;14.23;;;;;;;;;;5032565;28;20420;-56
2022/06/30 02:32:35;;;;;;;16.43;14.70;;;;;;;;;;5032567;28;20495;-56
2022/06/30 02:35:01;;;;;;;17.17;15.40;;;;;;;;;;5032527;28;20435;-55
2022/06/30 02:37:27;;;;;;;19.03;15.33;;;;;;;;;;5032208;28;20892;-56
2022/06/30 02:39:53;;;;;;;21.53;15.70;;;;;;;;;;5032221;28;20410;-56
2022/06/30 02:42:19;;;;;;;17.53;15.77;;;;;;;;;;5032275;28;20455;-56
2022/06/30 02:44:45;;;;;;;16.50;14.60;;;;;;;;;;5032668;28;20400;-56
2022/06/30 02:47:11;;;;;;;17.10;14.97;;;;;;;;;;5032047;28;20398;-56
2022/06/30 02:49:39;;;;;;;18.17;15.07;;;;;;;;;;5031582;28;20484;-55
2022/06/30 02:52:05;;;;;;;19.97;16.00;;;;;;;;;;5048060;28;20489;-56
2022/06/30 02:54:31;;;;;;;16.60;14.40;;;;;;;;;;5049910;28;20839;-56
2022/06/30 02:56:57;;;;;;;17.37;14.43;;;;;;;;;;5032403;28;20379;-56
2022/06/30 02:59:23;;;;;;;19.13;15.10;;;;;;;;;;5032257;28;20407;-56
2022/06/30 03:01:49;;;;;;;21.30;15.10;;;;;;;;;;5031379;28;20482;-55
2022/06/30 03:04:15;;;;;;;19.67;15.33;;;;;;;;;;5032160;28;20388;-56
2022/06/30 03:06:41;;;;;;;20.30;16.17;;;;;;;;;;5032295;28;20402;-56
2022/06/30 03:09:08;;;;;;;17.60;14.60;;;;;;;;;;5031887;28;20408;-56
2022/06/30 03:11:34;;;;;;;17.90;15.00;;;;;;;;;;5031809;28;20436;-55
2022/06/30 03:14:00;;;;;;;17.47;14.37;;;;;;;;;;5031925;28;20485;-56
2022/06/30 03:16:26;;;;;;;20.83;14.90;;;;;;;;;;5031493;28;20463;-55
2022/06/30 03:18:53;;;;;;;19.90;14.90;;;;;;;;;;5031977;28;20398;-56
2022/06/30 03:21:20;;;;;;;17.23;15.37;;;;;;;;;;5031627;28;20887;-56
2022/06/30 03:23:46;;;;;;;19.87;16.33;;;;;;;;;;5031660;28;20730;-56
2022/06/30 03:26:12;;;;;;;16.60;14.90;;;;;;;;;;5031702;28;20774;-56
2022/06/30 03:28:38;;;;;;;18.37;16.37;;;;;;;;;;5031691;28;20391;-56
2022/06/30 03:31:05;;;;;;;18.80;16.83;;;;;;;;;;5031377;28;20546;-55
2022/06/30 03:33:31;;;;;;;20.80;17.00;;;;;;;;;;5031681;28;20416;-56
2022/06/30 03:35:56;;;;;;;19.57;16.97;;;;;;;;;;5031657;28;20460;-56
2022/06/30 03:38:22;;;;;;;19.13;16.87;;;;;;;;;;5031197;28;20416;-55
2022/06/30 03:40:48;;;;;;;21.03;17.83;;;;;;;;;;5031324;28;20394;-54
2022/06/30 03:43:16;;;;;;;22.53;18.00;;;;;;;;;;5045257;22;20565;-53
2022/06/30 03:45:43;;;;;;;19.50;16.83;;;;;;;;;;5031654;28;20432;-52
2022/06/30 03:48:09;;;;;;;19.50;17.40;;;;;;;;;;5031625;28;20931;-52
2022/06/30 03:50:35;;;;;;;20.93;16.77;;;;;;;;;;5031098;28;20498;-53
2022/06/30 03:53:02;;;;;;;22.03;17.37;;;;;;;;;;5031598;28;20460;-52
2022/06/30 03:55:28;;;;;;;29.00;18.77;;;;;;;;;;5031565;28;20534;-52
2022/06/30 03:57:54;;;;;;;26.93;18.80;;;;;;;;;;5031755;28;20402;-52
2022/06/30 04:00:20;;;;;;;23.00;18.00;;;;;;;;;;5030898;28;20402;-53
2022/06/30 04:02:46;;;;;;;21.20;17.83;;;;;;;;;;5031704;28;20418;-52
2022/06/30 04:05:14;;;;;;;19.00;16.13;;;;;;;;;;5031560;28;20457;-53
2022/06/30 04:07:41;;;;;;;21.70;16.53;;;;;;;;;;5031337;28;20452;-53
2022/06/30 04:10:07;;;;;;;20.70;16.77;;;;;;;;;;5031026;28;20448;-52
2022/06/30 04:12:33;;;;;;;24.80;18.30;;;;;;;;;;5030978;28;20484;-53
2022/06/30 04:14:59;;;;;;;21.10;18.77;;;;;;;;;;5031092;28;20799;-53
2022/06/30 04:17:25;;;;;;;28.70;19.20;;;;;;;;;;5031211;28;20473;-53
2022/06/30 04:19:51;;;;;;;25.43;18.80;;;;;;;;;;5011724;28;20422;-53
2022/06/30 04:22:17;;;;;;;21.17;18.90;;;;;;;;;;5026946;28;20392;-53
2022/06/30 04:24:43;;;;;;;21.57;18.00;;;;;;;;;;5031312;28;20395;-53
2022/06/30 04:27:09;;;;;;;20.30;17.30;;;;;;;;;;5031336;28;20479;-52
2022/06/30 04:29:35;;;;;;;25.93;17.43;;;;;;;;;;5031206;28;20401;-53
2022/06/30 04:34:46;;;;;;;18.87;16.13;;;;;;;;;;5031108;28;20427;-53
2022/06/30 04:37:11;;;;;;;25.50;17.57;;;;;;;;;;5031065;28;20413;-53
2022/06/30 04:39:37;;;;;;;17.53;15.10;;;;;;;;;;5031130;28;20963;-53
2022/06/30 04:42:04;;;;;;;22.50;17.33;;;;;;;;;;5030927;28;20485;-53
2022/06/30 04:44:29;;;;;;;20.77;18.53;;;;;;;;;;5030450;28;20444;-52
2022/06/30 04:46:55;;;;;;;24.77;20.67;;;;;;;;;;5030876;28;20414;-53
2022/06/30 04:49:21;;;;;;;27.10;20.97;;;;;;;;;;5031891;28;20410;-53
2022/06/30 04:51:47;;;;;;;21.87;19.40;;;;;;;;;;5034373;28;20975;-53
2022/06/30 04:54:15;;;;;;;30.63;17.73;;;;;;;;;;5033248;28;20438;-53
2022/06/30 04:56:41;;;;;;;22.80;18.87;;;;;;;;;;5034333;28;20947;-52
2022/06/30 04:59:07;;;;;;;20.50;17.77;;;;;;;;;;5034553;28;20423;-53
2022/06/30 05:01:33;;;;;;;18.40;15.93;;;;;;;;;;5034154;28;20952;-52
2022/06/30 05:03:59;;;;;;;17.97;16.07;;;;;;;;;;5034616;28;20401;-52
2022/06/30 05:06:25;;;;;;;17.57;15.87;;;;;;;;;;5034002;28;20913;-53
2022/06/30 05:08:51;;;;;;;20.30;17.20;;;;;;;;;;5034415;28;20451;-53
2022/06/30 05:11:17;;;;;;;24.90;18.20;;;;;;;;;;5034034;28;20459;-52
2022/06/30 05:13:43;;;;;;;20.23;18.10;;;;;;;;;;5034302;28;20435;-53
2022/06/30 05:16:09;;;;;;;22.10;17.37;;;;;;;;;;5032380;28;20551;-54
2022/06/30 05:18:36;;;;;;;20.17;16.73;;;;;;;;;;5034461;28;20590;-53
2022/06/30 05:21:02;;;;;;;25.20;17.30;;;;;;;;;;5033764;28;20506;-53
2022/06/30 05:23:27;;;;;;;23.77;18.80;;;;;;;;;;5034254;28;20512;-53
2022/06/30 05:28:38;;;;;;;19.93;16.33;;;;;;;;;;5033926;28;21022;-53
2022/06/30 05:31:04;;;;;;;23.20;16.73;;;;;;;;;;5033689;28;20525;-53
2022/06/30 05:33:31;;;;;;;21.07;15.93;;;;;;;;;;5033906;28;20951;-53
2022/06/30 05:35:58;;;;;;;21.90;16.93;;;;;;;;;;5033619;28;20475;-53
2022/06/30 05:38:24;;;;;;;21.17;16.40;;;;;;;;;;5034025;28;20411;-53
2022/06/30 05:40:51;;;;;;;18.60;16.00;;;;;;;;;;5033563;28;20746;-53
2022/06/30 05:43:17;;;;;;;24.50;16.30;;;;;;;;;;5033438;28;20433;-53
2022/06/30 05:45:50;;;;;;;21.10;15.87;;;;;;;;;;5033258;28;20478;-53
2022/06/30 05:48:16;;;;;;;16.60;14.47;;;;;;;;;;5033568;28;20423;-53
2022/06/30 05:50:42;;;;;;;17.77;14.53;;;;;;;;;;5033048;28;20519;-53
2022/06/30 05:53:08;;;;;;;16.30;13.80;;;;;;;;;;5033422;28;20434;-53
2022/06/30 05:55:34;;;;;;;18.47;14.43;;;;;;;;;;5033580;28;20831;-53
2022/06/30 05:58:01;;;;;;;18.20;14.27;;;;;;;;;;5033390;28;20413;-52
2022/06/30 06:00:29;;;;;;;16.03;12.83;;;;;;;;;;5031914;28;20984;-53
2022/06/30 06:02:55;;;;;;;16.27;14.00;;;;;;;;;;5033406;28;20441;-53
2022/06/30 06:05:21;;;;;;;18.63;15.07;;;;;;;;;;5033309;28;20460;-53
2022/06/30 06:07:48;;;;;;;16.40;12.77;;;;;;;;;;5033302;28;20450;-53
2022/06/30 06:10:14;;;;;;;14.23;12.83;;;;;;;;;;5032951;28;20773;-53
2022/06/30 06:12:41;;;;;;;14.67;13.20;;;;;;;;;;5013568;28;20937;-53
2022/06/30 06:15:08;;;;;;;13.47;12.07;;;;;;;;;;5016697;28;20945;-53
2022/06/30 06:17:40;;;;;;;13.63;12.33;;;;;;;;;;5033213;28;20823;-54
2022/06/30 06:20:06;;;;;;;17.20;12.57;;;;;;;;;;5032466;28;20424;-53
2022/06/30 06:22:32;;;;;;;14.60;11.73;;;;;;;;;;5032907;28;20445;-53
2022/06/30 06:25:00;;;;;;;13.53;12.10;;;;;;;;;;5032659;28;20426;-53
2022/06/30 06:27:26;;;;;;;13.57;12.03;;;;;;;;;;5032932;28;20426;-53
2022/06/30 06:29:52;;;;;;;13.33;11.27;;;;;;;;;;5032809;28;20449;-53
2022/06/30 06:32:18;;;;;;;12.73;11.63;;;;;;;;;;5032126;28;20461;-54
2022/06/30 06:34:44;;;;;;;14.63;12.10;;;;;;;;;;5032764;28;20449;-53
2022/06/30 06:37:10;;;;;;;12.73;11.07;;;;;;;;;;5036390;28;20472;-53
2022/06/30 06:39:42;;;;;;;12.03;10.83;;;;;;;;;;5035714;28;20434;-53
2022/06/30 06:42:08;;;;;;;13.17;11.83;;;;;;;;;;5034870;28;20847;-53
2022/06/30 06:44:34;;;;;;;11.90;10.27;;;;;;;;;;5036704;28;20436;-53
2022/06/30 06:47:00;;;;;;;11.50;10.50;;;;;;;;;;5032586;28;20770;-53
2022/06/30 06:49:27;;;;;;;10.67;9.70;;;;;;;;;;5031944;28;20509;-53
2022/06/30 06:51:53;;;;;;;11.37;10.27;;;;;;;;;;5031981;28;20528;-53
2022/06/30 06:54:19;;;;;;;12.00;10.90;;;;;;;;;;5032075;28;20474;-53
2022/06/30 06:56:45;;;;;;;11.43;10.23;;;;;;;;;;5032034;28;20556;-53
2022/06/30 06:59:11;;;;;;;12.77;10.67;;;;;;;;;;5032096;28;20422;-53
2022/06/30 07:01:37;;;;;;;11.90;9.90;;;;;;;;;;5031786;28;20425;-53
2022/06/30 07:04:03;;;;;;;12.23;11.03;;;;;;;;;;5032120;28;20442;-54
2022/06/30 07:06:29;;;;;;;10.73;9.67;;;;;;;;;;5031885;28;20422;-53
2022/06/30 07:08:55;;;;;;;11.50;10.30;;;;;;;;;;5032271;28;20928;-53
2022/06/30 07:11:21;;;;;;;9.90;9.00;;;;;;;;;;5031254;28;20488;-53
2022/06/30 07:13:47;;;;;;;10.40;9.40;;;;;;;;;;5032141;28;20433;-53
2022/06/30 07:16:13;;;;;;;9.73;8.73;;;;;;;;;;5031701;28;20812;-54
2022/06/30 07:18:39;;;;;;;10.67;9.67;;;;;;;;;;5031796;28;20416;-54
2022/06/30 07:21:05;;;;;;;9.97;8.57;;;;;;;;;;5031231;28;20482;-53
2022/06/30 07:23:31;;;;;;;8.70;7.90;;;;;;;;;;5031798;28;20464;-53
2022/06/30 07:25:57;;;;;;;9.00;8.20;;;;;;;;;;5031399;28;20424;-53
2022/06/30 07:28:24;;;;;;;8.13;7.33;;;;;;;;;;5031688;28;20421;-53
2022/06/30 07:30:52;;;;;;;9.10;8.03;;;;;;;;;;5031581;28;20481;-53
2022/06/30 07:33:18;;;;;;;7.97;7.20;;;;;;;;;;5031367;28;20438;-53
2022/06/30 07:35:44;;;;;;;7.30;6.60;;;;;;;;;;5031413;28;20968;-53
2022/06/30 07:38:10;;;;;;;6.20;5.70;;;;;;;;;;5031418;28;20478;-53
2022/06/30 07:40:36;;;;;;;6.23;5.67;;;;;;;;;;5031374;28;20902;-53
2022/06/30 07:43:02;;;;;;;7.33;6.67;;;;;;;;;;5031557;28;20427;-53
2022/06/30 07:45:28;;;;;;;6.47;5.87;;;;;;;;;;5031336;28;20789;-53
2022/06/30 07:47:54;;;;;;;9.60;5.53;;;;;;;;;;5031319;28;20512;-53
2022/06/30 07:50:20;;;;;;;5.50;5.00;;;;;;;;;;5031023;28;20869;-53
2022/06/30 07:52:47;;;;;;;5.23;4.83;;;;;;;;;;5029801;28;21006;-54
2022/06/30 07:55:13;;;;;;;6.00;5.33;;;;;;;;;;5031424;28;20457;-54
2022/06/30 07:57:42;;;;;;;6.37;5.87;;;;;;;;;;5031141;28;20423;-54
2022/06/30 08:00:09;;;;;;;6.17;5.67;;;;;;;;;;5030957;28;20422;-54
2022/06/30 08:02:35;;;;;;;5.43;4.93;;;;;;;;;;5031436;28;20428;-55
2022/06/30 08:05:01;;;;;;;6.00;5.40;;;;;;;;;;5031084;28;20501;-54
2022/06/30 08:07:27;;;;;;;6.10;5.00;;;;;;;;;;5030809;28;20834;-54
2022/06/30 08:09:53;;;;;;;5.27;4.87;;;;;;;;;;5031052;28;20422;-54
2022/06/30 08:12:19;;;;;;;7.30;6.20;;;;;;;;;;5030602;28;20430;-54
2022/06/30 08:14:45;;;;;;;5.47;5.07;;;;;;;;;;5031697;28;20460;-54
2022/06/30 08:17:11;;;;;;;5.67;5.00;;;;;;;;;;5030767;28;20411;-54
2022/06/30 08:19:37;;;;;;;5.63;5.13;;;;;;;;;;5030980;28;20780;-54
2022/06/30 08:22:03;;;;;;;6.40;5.80;;;;;;;;;;5031176;28;20428;-54
2022/06/30 08:24:29;;;;;;;5.60;5.00;;;;;;;;;;5033104;28;20446;-55
2022/06/30 08:26:55;;;;;;;7.93;7.23;;;;;;;;;;5034996;28;20428;-56
2022/06/30 08:29:21;;;;;;;7.20;6.20;;;;;;;;;;5034642;28;20441;-56
2022/06/30 08:31:47;;;;;;;4.30;4.00;;;;;;;;;;5034783;28;20945;-56
2022/06/30 08:34:13;;;;;;;4.67;4.27;;;;;;;;;;5034568;28;20425;-56
2022/06/30 08:36:41;;;;;;;4.17;3.80;;;;;;;;;;5034811;28;20972;-56
2022/06/30 08:42:02;;;;;;;19.53;4.33;;;;;;;;;;5034568;28;20418;-56
2022/06/30 08:42:03;;;;;;;3.73;3.43;;;;;;;;;;5034521;28;20417;-56
2022/06/30 08:44:31;;;;;;;4.67;4.27;;;;;;;;;;5034864;28;20445;-57
2022/06/30 08:46:58;;;;;;;3.60;3.40;;;;;;;;;;5034899;28;20421;-56
2022/06/30 08:49:25;;;;;;;4.57;4.27;;;;;;;;;;5033892;28;20418;-57
2022/06/30 08:51:52;;;;;;;3.70;3.40;;;;;;;;;;5034074;28;20422;-57
2022/06/30 08:54:20;;;;;;;3.90;3.60;;;;;;;;;;5034365;28;20464;-56
2022/06/30 08:56:46;;;;;;;5.57;3.30;;;;;;;;;;5034187;28;20504;-56
2022/06/30 08:59:13;;;;;;;8.47;7.67;;;;;;;;;;5034203;28;20421;-56
2022/06/30 09:01:38;;;;;;;4.53;3.53;;;;;;;;;;5034305;28;20498;-56
2022/06/30 09:04:07;;;;;;;3.83;3.63;;;;;;;;;;5033983;28;20517;-56
2022/06/30 09:06:33;;;;;;;3.70;2.70;;;;;;;;;;5034282;28;20172;-57
2022/06/30 09:08:59;;;;;;;3.00;2.80;;;;;;;;;;5034175;28;20414;-56
2022/06/30 09:11:45;;;;;;;6.80;6.20;;;;;;;;;;5033896;28;20421;-56
2022/06/30 09:14:10;;;;;;;2.80;2.60;;;;;;;;;;5033071;28;20429;-55
2022/06/30 09:16:52;;;;;;;2.70;2.50;;;;;;;;;;5033826;28;20465;-56
2022/06/30 09:19:17;;;;;;;3.17;2.97;;;;;;;;;;5032638;28;20262;-56
2022/06/30 09:21:43;;;;;;;4.50;2.87;;;;;;;;;;5033011;28;20497;-55
2022/06/30 09:24:22;;;;;;;3.33;3.07;;;;;;;;;;5033249;28;20484;-56
2022/06/30 09:26:48;;;;;;;4.50;4.10;;;;;;;;;;5034183;28;20175;-56
2022/06/30 09:29:14;;;;;;;3.20;2.20;;;;;;;;;;5033779;28;20418;-56
2022/06/30 09:31:44;;;;;;;4.60;3.80;;;;;;;;;;5033560;28;20175;-56
2022/06/30 09:34:20;;;;;;;3.03;2.83;;;;;;;;;;5033553;28;20514;-56
2022/06/30 09:36:47;;;;;;;3.10;2.90;;;;;;;;;;5033576;28;20507;-56
2022/06/30 09:39:13;;;;;;;2.60;2.40;;;;;;;;;;5033491;28;20425;-57
2022/06/30 09:41:41;;;;;;;2.47;2.27;;;;;;;;;;5033182;28;20414;-57
2022/06/30 09:44:07;;;;;;;7.03;2.20;;;;;;;;;;5033654;28;20442;-55
2022/06/30 09:46:37;;;;;;;2.20;2.07;;;;;;;;;;5033514;28;20429;-56
2022/06/30 09:49:04;;;;;;;3.17;1.90;;;;;;;;;;5033452;28;20541;-56
2022/06/30 09:51:31;;;;;;;2.07;1.97;;;;;;;;;;5032964;28;20421;-57
2022/06/30 09:54:07;;;;;;;2.20;2.10;;;;;;;;;;5033438;28;20438;-55
2022/06/30 09:56:33;;;;;;;3.10;2.80;;;;;;;;;;5033114;28;20500;-56
2022/06/30 09:58:59;;;;;;;2.20;2.10;;;;;;;;;;5033348;28;20417;-56
2022/06/30 10:01:26;;;;;;;2.30;2.10;;;;;;;;;;5032895;28;20509;-56
2022/06/30 10:03:59;;;;;;;2.23;2.03;;;;;;;;;;5032289;28;20422;-56
2022/06/30 10:06:25;;;;;;;2.27;2.07;;;;;;;;;;5032776;28;20502;-57
2022/06/30 10:08:52;;;;;;;2.20;2.00;;;;;;;;;;5031259;28;20509;-57
2022/06/30 10:11:18;;;;;;;2.27;1.73;;;;;;;;;;5028423;28;20906;-56
2022/06/30 10:13:46;;;;;;;2.53;2.20;;;;;;;;;;5039618;28;20422;-57
2022/06/30 10:16:13;;;;;;;2.43;2.23;;;;;;;;;;5026932;28;20454;-57
2022/06/30 10:18:40;;;;;;;4.00;1.97;;;;;;;;;;5033483;28;20410;-56
2022/06/30 10:21:08;;;;;;;1.77;1.63;;;;;;;;;;5024833;28;20410;-56
2022/06/30 10:23:34;;;;;;;2.00;1.70;;;;;;;;;;5015892;28;20431;-56
2022/06/30 10:26:00;;;;;;;2.07;1.97;;;;;;;;;;5029527;28;20828;-57
2022/06/30 10:28:30;;;;;;;1.67;1.57;;;;;;;;;;5031826;28;20408;-57
2022/06/30 10:30:56;;;;;;;6.40;2.23;;;;;;;;;;5030603;28;20916;-57
2022/06/30 10:33:22;;;;;;;2.20;2.00;;;;;;;;;;5031176;28;20433;-56
2022/06/30 10:36:05;;;;;;;2.40;2.20;;;;;;;;;;5031091;28;20620;-56
2022/06/30 10:38:45;;;;;;;2.63;2.43;;;;;;;;;;5032224;28;20167;-56
2022/06/30 10:41:15;;;;;;;2.43;1.90;;;;;;;;;;5031959;28;20413;-57
2022/06/30 10:44:00;;;;;;;5.53;2.20;;;;;;;;;;5031942;28;20458;-58
2022/06/30 10:46:26;;;;;;;3.30;1.87;;;;;;;;;;5031770;28;20414;-57
2022/06/30 10:48:53;;;;;;;1.90;1.80;;;;;;;;;;5032939;28;20406;-57
2022/06/30 10:51:20;;;;;;;1.87;1.77;;;;;;;;;;5031880;28;20174;-57
2022/06/30 10:53:46;;;;;;;2.00;1.60;;;;;;;;;;5032153;28;20422;-57
2022/06/30 10:56:12;;;;;;;1.83;1.73;;;;;;;;;;5032197;28;20548;-57
2022/06/30 10:58:58;;;;;;;1.63;1.53;;;;;;;;;;5032385;28;20175;-57
2022/06/30 11:01:24;;;;;;;1.90;1.80;;;;;;;;;;5031470;28;20179;-57
2022/06/30 11:03:54;;;;;;;1.80;1.70;;;;;;;;;;5032103;28;20426;-58
2022/06/30 11:06:21;;;;;;;2.83;1.80;;;;;;;;;;5031766;28;20825;-56
2022/06/30 11:08:49;;;;;;;2.33;1.80;;;;;;;;;;5032468;28;20418;-57
2022/06/30 11:11:21;;;;;;;1.60;1.50;;;;;;;;;;5027257;28;20900;-58
2022/06/30 11:13:51;;;;;;;2.70;2.10;;;;;;;;;;5027782;28;20433;-58
2022/06/30 11:16:18;;;;;;;2.10;1.60;;;;;;;;;;5027781;28;20429;-58
2022/06/30 11:18:44;;;;;;;2.90;1.90;;;;;;;;;;5022159;28;20410;-57
2022/06/30 11:21:10;;;;;;;2.50;2.20;;;;;;;;;;5028855;28;20426;-57
2022/06/30 11:23:39;;;;;;;2.07;1.90;;;;;;;;;;5032044;28;20418;-57
2022/06/30 11:28:52;;;;;;;1.87;1.77;;;;;;;;;;5024584;28;20460;-57
2022/06/30 11:31:21;;;;;;;5.43;1.80;;;;;;;;;;5021077;28;20406;-57
2022/06/30 11:33:51;;;;;;;2.83;1.93;;;;;;;;;;5021712;28;20493;-57
2022/06/30 11:36:17;;;;;;;2.40;2.20;;;;;;;;;;5023833;28;20422;-57
2022/06/30 11:38:43;;;;;;;2.40;2.20;;;;;;;;;;5022685;28;20407;-56
2022/06/30 11:43:54;;;;;;;2.63;2.10;;;;;;;;;;5012255;28;20513;-57
2022/06/30 11:46:20;;;;;;;2.10;2.00;;;;;;;;;;5029009;28;20461;-57
2022/06/30 11:48:46;;;;;;;2.37;2.10;;;;;;;;;;5034146;28;20422;-57
2022/06/30 11:51:12;;;;;;;6.80;2.30;;;;;;;;;;5031216;28;20418;-57
2022/06/30 11:53:39;;;;;;;2.93;1.80;;;;;;;;;;5031227;28;20430;-57
2022/06/30 11:56:05;;;;;;;2.23;2.00;;;;;;;;;;5031020;28;20517;-56
2022/06/30 11:58:31;;;;;;;2.87;2.30;;;;;;;;;;5033666;28;21106;-57
2022/06/30 12:00:57;;;;;;;2.83;2.00;;;;;;;;;;5035129;28;20501;-57
2022/06/30 12:03:23;;;;;;;3.03;2.10;;;;;;;;;;5035325;28;20438;-56
2022/06/30 12:05:53;;;;;;;2.37;2.27;;;;;;;;;;5035303;28;20814;-56
2022/06/30 12:08:23;;;;;;;3.40;2.20;;;;;;;;;;5035485;28;20265;-56
2022/06/30 12:10:49;;;;;;;3.80;2.20;;;;;;;;;;5033575;28;20552;-57
2022/06/30 12:13:17;;;;;;;2.43;2.23;;;;;;;;;;5034941;28;20442;-58
2022/06/30 12:15:43;;;;;;;2.07;1.87;;;;;;;;;;5037920;28;20511;-57
2022/06/30 12:18:09;;;;;;;2.43;2.30;;;;;;;;;;5035385;28;20421;-57
2022/06/30 12:20:36;;;;;;;4.90;2.07;;;;;;;;;;5034564;28;20572;-57
2022/06/30 12:23:03;;;;;;;3.23;2.40;;;;;;;;;;5050466;28;20461;-57
2022/06/30 12:25:29;;;;;;;4.20;2.53;;;;;;;;;;5047109;28;20449;-56
2022/06/30 12:27:59;;;;;;;2.60;2.20;;;;;;;;;;5035212;28;20402;-56
2022/06/30 12:30:31;;;;;;;4.20;2.30;;;;;;;;;;5034401;28;20801;-57
2022/06/30 12:33:02;;;;;;;4.87;2.63;;;;;;;;;;5035104;28;20492;-57
2022/06/30 12:35:31;;;;;;;2.43;2.23;;;;;;;;;;5034808;28;20444;-57
2022/06/30 12:37:57;;;;;;;2.43;2.33;;;;;;;;;;5034692;28;20409;-57
2022/06/30 12:40:26;;;;;;;2.00;1.90;;;;;;;;;;5034494;28;20442;-57
2022/06/30 12:42:53;;;;;;;3.67;1.90;;;;;;;;;;5034739;28;20429;-57
2022/06/30 12:45:38;;;;;;;8.93;2.13;;;;;;;;;;5034249;28;20536;-56
2022/06/30 12:48:05;;;;;;;2.43;1.93;;;;;;;;;;5034713;28;20464;-56
2022/06/30 12:50:32;;;;;;;7.23;2.13;;;;;;;;;;5034138;28;20913;-56
2022/06/30 12:53:16;;;;;;;2.60;2.07;;;;;;;;;;5034697;28;20425;-56
2022/06/30 12:56:02;;;;;;;2.20;2.03;;;;;;;;;;5029114;28;20410;-56
2022/06/30 12:58:42;;;;;;;4.10;2.20;;;;;;;;;;5023840;28;20777;-57
2022/06/30 13:01:08;;;;;;;2.87;2.57;;;;;;;;;;5022959;28;20465;-56
2022/06/30 13:03:46;;;;;;;2.77;2.63;;;;;;;;;;5018779;28;20424;-57
2022/06/30 13:06:12;;;;;;;4.80;2.43;;;;;;;;;;5028981;28;20449;-56
2022/06/30 13:08:38;;;;;;;2.43;2.23;;;;;;;;;;5034671;28;20433;-57
2022/06/30 13:11:07;;;;;;;2.90;2.40;;;;;;;;;;5033106;28;20171;-57
2022/06/30 13:13:33;;;;;;;2.57;2.40;;;;;;;;;;5034354;28;20198;-57
2022/06/30 13:15:59;;;;;;;2.67;2.47;;;;;;;;;;5034001;28;20414;-57
2022/06/30 13:18:25;;;;;;;3.50;2.37;;;;;;;;;;5034485;28;20404;-56
2022/06/30 13:20:51;;;;;;;13.20;2.67;;;;;;;;;;5033526;28;20418;-56
2022/06/30 13:23:17;;;;;;;3.60;2.43;;;;;;;;;;5034017;28;20429;-56
2022/06/30 13:25:43;;;;;;;3.00;2.43;;;;;;;;;;5033690;28;20484;-56
2022/06/30 13:28:09;;;;;;;6.90;2.40;;;;;;;;;;5034235;28;20410;-56
2022/06/30 13:30:35;;;;;;;2.63;2.53;;;;;;;;;;5033502;28;20925;-56
2022/06/30 13:33:01;;;;;;;2.80;2.60;;;;;;;;;;5033773;28;20434;-57
2022/06/30 13:35:27;;;;;;;2.90;2.50;;;;;;;;;;5033521;28;20430;-57
2022/06/30 13:37:53;;;;;;;4.13;2.53;;;;;;;;;;5033182;28;20506;-57
2022/06/30 13:40:20;;;;;;;2.60;2.40;;;;;;;;;;5033469;28;20424;-57
2022/06/30 13:42:46;;;;;;;10.77;2.77;;;;;;;;;;5033552;28;20426;-57
2022/06/30 13:45:12;;;;;;;6.03;2.80;;;;;;;;;;5033705;28;20457;-56
2022/06/30 13:47:38;;;;;;;3.10;2.20;;;;;;;;;;5033597;28;20980;-57
2022/06/30 13:50:04;;;;;;;3.00;2.80;;;;;;;;;;5033126;28;20418;-57
2022/06/30 13:52:34;;;;;;;3.30;2.40;;;;;;;;;;5033464;28;20426;-57
2022/06/30 13:55:00;;;;;;;4.60;2.57;;;;;;;;;;5033087;28;20422;-56
2022/06/30 13:57:25;;;;;;;2.70;2.50;;;;;;;;;;5032717;28;20424;-57
2022/06/30 13:59:51;;;;;;;7.23;2.20;;;;;;;;;;5033496;28;20183;-57
2022/06/30 14:02:17;;;;;;;2.80;2.60;;;;;;;;;;5033018;28;20972;-57
2022/06/30 14:04:43;;;;;;;3.47;2.80;;;;;;;;;;5032890;28;20414;-57
2022/06/30 14:07:09;;;;;;;2.70;2.50;;;;;;;;;;5033251;28;20179;-57
2022/06/30 14:09:35;;;;;;;3.70;2.63;;;;;;;;;;5031883;28;20274;-57
2022/06/30 14:12:01;;;;;;;3.00;2.70;;;;;;;;;;5033286;28;20399;-57
2022/06/30 14:14:28;;;;;;;3.20;2.90;;;;;;;;;;5032966;28;20441;-57
2022/06/30 14:16:58;;;;;;;2.70;2.53;;;;;;;;;;5032914;28;20453;-57
2022/06/30 14:19:24;;;;;;;3.47;3.27;;;;;;;;;;5032339;28;20926;-57
2022/06/30 14:21:50;;;;;;;2.63;2.50;;;;;;;;;;5031787;28;20411;-57
2022/06/30 14:24:16;;;;;;;5.23;2.80;;;;;;;;;;5032266;28;20437;-57
2022/06/30 14:26:42;;;;;;;5.40;3.07;;;;;;;;;;5032681;28;20462;-57
2022/06/30 14:29:10;;;;;;;4.93;2.97;;;;;;;;;;5032458;28;20214;-57
2022/06/30 14:31:36;;;;;;;2.80;2.60;;;;;;;;;;5032532;28;20402;-57
2022/06/30 14:34:02;;;;;;;2.50;2.30;;;;;;;;;;5032449;28;20442;-57
2022/06/30 14:36:28;;;;;;;3.40;2.83;;;;;;;;;;5032627;28;20180;-57
2022/06/30 14:38:54;;;;;;;3.50;2.53;;;;;;;;;;5032152;28;20479;-57
2022/06/30 14:44:05;;;;;;;3.03;2.83;;;;;;;;;;5032335;28;21003;-56
2022/06/30 14:46:31;;;;;;;6.60;3.00;;;;;;;;;;5031538;28;20445;-57